Time,TemperatureF,DewpointF,PressureIn,WindDirection,WindDirectionDegrees,WindSpeedMPH,WindSpeedGustMPH,Humidity,HourlyPrecipIn,Conditions,Clouds,dailyrainin,SoftwareType,DateUTC
2013-02-17 00:00:00,22.5,13.8,30.23,NW,315,0.0,0.0,69,0.00,CLR,,0.00,WeatherDisplay:10.37,2013-02-17 06:00:00,
2013-02-17 00:10:00,22.8,14.2,30.24,NW,315,0.0,0.0,69,0.00,CLR,,0.00,WeatherDisplay:10.37,2013-02-17 06:10:00,
2013-02-17 00:20:00,22.6,14.3,30.24,NW,315,0.0,0.0,70,0.00,CLR,,0.00,WeatherDisplay:10.37,2013-02-17 06:20:00,
2013-02-17 00:30:00,22.6,14.0,30.24,NW,315,0.0,0.0,69,0.00,CLR,,0.00,WeatherDisplay:10.37,2013-02-17 06:30:00,
2013-02-17 00:40:00,22.3,14.0,30.23,NW,315,0.0,0.0,70,0.00,CLR,,0.00,WeatherDisplay:10.37,2013-02-17 06:40:00,
2013-02-17 00:50:00,22.2,14.3,30.23,NW,315,0.0,0.0,71,0.00,CLR,,0.00,WeatherDisplay:10.37,2013-02-17 06:50:00,
2013-02-17 01:00:00,22.1,14.4,30.23,NW,315,0.0,0.0,72,0.00,CLR,,0.00,WeatherDisplay:10.37,2013-02-17 07:00:00,
2013-02-17 01:10:00,22.1,14.8,30.23,NW,315,0.0,0.0,73,0.00,CLR,,0.00,WeatherDisplay:10.37,2013-02-17 07:10:00,
2013-02-17 01:20:00,21.9,14.6,30.23,NW,315,0.0,0.0,73,0.00,CLR,,0.00,WeatherDisplay:10.37,2013-02-17 07:20:00,
2013-02-17 01:30:00,21.9,14.6,30.22,NW,315,0.0,0.0,73,0.00,CLR,,0.00,WeatherDisplay:10.37,2013-02-17 07:30:00,
2013-02-17 01:40:00,21.6,14.6,30.22,NW,315,0.0,0.0,74,0.00,CLR,,0.00,WeatherDisplay:10.37,2013-02-17 07:40:00,
2013-02-17 01:50:00,21.4,14.7,30.21,NW,315,0.0,0.0,75,0.00,CLR,,0.00,WeatherDisplay:10.37,2013-02-17 07:50:00,
2013-02-17 02:00:00,21.4,15.0,30.21,NW,315,0.0,0.0,76,0.00,CLR,,0.00,WeatherDisplay:10.37,2013-02-17 08:00:00,
2013-02-17 02:10:00,21.2,14.8,30.21,NW,315,0.0,0.0,76,0.00,CLR,,0.00,WeatherDisplay:10.37,2013-02-17 08:10:00,
2013-02-17 02:20:00,20.8,14.5,30.21,WNW,295,0.0,0.0,76,0.00,CLR,,0.00,WeatherDisplay:10.37,2013-02-17 08:20:00,
2013-02-17 02:30:00,20.8,14.8,30.21,West,270,0.0,0.0,77,0.00,CLR,,0.00,WeatherDisplay:10.37,2013-02-17 08:30:00,
2013-02-17 02:40:00,21.0,14.9,30.21,WSW,243,0.0,0.0,77,0.00,CLR,,0.00,WeatherDisplay:10.37,2013-02-17 08:40:00,
2013-02-17 02:50:00,21.9,15.8,30.21,SW,225,0.0,0.0,77,0.00,CLR,,0.00,WeatherDisplay:10.37,2013-02-17 08:50:00,
2013-02-17 03:00:00,22.6,16.2,30.21,SW,225,0.0,0.0,76,0.00,CLR,,0.00,WeatherDisplay:10.37,2013-02-17 09:00:00,
2013-02-17 03:10:00,23.2,16.7,30.21,SW,225,0.0,0.0,76,0.00,CLR,,0.00,WeatherDisplay:10.37,2013-02-17 09:10:00,
2013-02-17 03:20:00,23.2,16.5,30.21,SW,225,0.0,0.0,75,0.00,CLR,,0.00,WeatherDisplay:10.37,2013-02-17 09:20:00,
2013-02-17 03:30:00,23.4,16.6,30.21,SW,225,0.0,0.0,75,0.00,CLR,,0.00,WeatherDisplay:10.37,2013-02-17 09:30:00,
2013-02-17 03:40:00,23.7,17.0,30.21,SW,225,0.0,0.0,75,0.00,CLR,,0.00,WeatherDisplay:10.37,2013-02-17 09:40:00,
2013-02-17 03:50:00,23.9,16.8,30.21,SW,225,0.0,0.0,74,0.00,CLR,,0.00,WeatherDisplay:10.37,2013-02-17 09:50:00,
2013-02-17 04:00:00,24.4,17.3,30.21,SW,225,0.0,0.0,74,0.00,CLR,,0.00,WeatherDisplay:10.37,2013-02-17 10:00:00,
2013-02-17 04:10:00,24.6,17.5,30.21,SW,216,0.0,0.0,74,0.00,CLR,,0.00,WeatherDisplay:10.37,2013-02-17 10:10:00,
2013-02-17 04:20:00,25.0,17.5,30.21,SSW,202,0.0,0.0,73,0.00,CLR,,0.00,WeatherDisplay:10.37,2013-02-17 10:20:00,
2013-02-17 04:30:00,25.3,17.9,30.21,SSW,202,0.0,0.0,73,0.00,CLR,,0.00,WeatherDisplay:10.37,2013-02-17 10:30:00,
2013-02-17 04:40:00,25.5,18.1,30.20,SSW,202,0.0,0.0,73,0.00,CLR,,0.00,WeatherDisplay:10.37,2013-02-17 10:40:00,
2013-02-17 04:50:00,25.5,17.7,30.20,South,190,0.0,0.0,72,0.00,CLR,,0.00,WeatherDisplay:10.37,2013-02-17 10:50:00,
2013-02-17 05:00:00,25.9,17.8,30.21,South,180,0.0,0.0,71,0.00,CLR,,0.00,WeatherDisplay:10.37,2013-02-17 11:00:00,
2013-02-17 05:10:00,26.1,17.9,30.21,South,180,0.0,0.0,71,0.00,CLR,,0.00,WeatherDisplay:10.37,2013-02-17 11:10:00,
2013-02-17 05:20:00,26.2,18.1,30.21,South,181,0.0,0.0,71,0.00,CLR,,0.00,WeatherDisplay:10.37,2013-02-17 11:20:00,
2013-02-17 05:30:00,26.4,18.0,30.22,SSW,201,0.0,0.0,70,0.00,CLR,,0.00,WeatherDisplay:10.37,2013-02-17 11:30:00,
2013-02-17 05:40:00,26.4,18.0,30.23,SSW,194,0.0,0.0,70,0.00,CLR,,0.00,WeatherDisplay:10.37,2013-02-17 11:40:00,
2013-02-17 05:50:00,26.4,18.0,30.23,SSW,202,0.0,0.0,70,0.00,CLR,,0.00,WeatherDisplay:10.37,2013-02-17 11:50:00,
2013-02-17 06:00:00,26.4,18.0,30.23,SSW,196,0.0,0.0,70,0.00,CLR,,0.00,WeatherDisplay:10.37,2013-02-17 12:00:00,
2013-02-17 06:10:00,26.4,18.0,30.23,South,180,0.0,0.0,70,0.00,CLR,,0.00,WeatherDisplay:10.37,2013-02-17 12:10:00,
2013-02-17 06:20:00,26.4,18.0,30.23,South,177,0.0,0.0,70,0.00,CLR,,0.00,WeatherDisplay:10.37,2013-02-17 12:20:00,
2013-02-17 06:30:00,26.8,18.3,30.23,SE,135,0.0,0.0,70,0.00,CLR,,0.00,WeatherDisplay:10.37,2013-02-17 12:30:00,
2013-02-17 06:40:00,26.8,18.3,30.23,SE,135,0.0,0.0,70,0.00,CLR,,0.00,WeatherDisplay:10.37,2013-02-17 12:40:00,
2013-02-17 06:50:00,27.0,18.5,30.22,SE,135,0.0,0.0,70,0.00,CLR,,0.00,WeatherDisplay:10.37,2013-02-17 12:50:00,
2013-02-17 07:00:00,27.3,18.8,30.23,SE,135,0.0,0.0,70,0.00,CLR,,0.00,WeatherDisplay:10.37,2013-02-17 13:00:00,
2013-02-17 07:10:00,27.7,18.8,30.23,SSE,154,0.0,0.0,69,0.00,CLR,,0.00,WeatherDisplay:10.37,2013-02-17 13:10:00,
2013-02-17 07:20:00,28.0,19.2,30.23,SSE,158,0.0,0.0,69,0.00,CLR,,0.00,WeatherDisplay:10.37,2013-02-17 13:20:00,
2013-02-17 07:30:00,28.2,19.3,30.23,South,173,0.0,0.0,69,0.00,CLR,,0.00,WeatherDisplay:10.37,2013-02-17 13:30:00,
2013-02-17 07:40:00,28.6,19.4,30.23,SSE,162,0.0,0.0,68,0.00,CLR,,0.00,WeatherDisplay:10.37,2013-02-17 13:40:00,
2013-02-17 07:50:00,28.9,19.7,30.25,SSE,164,0.0,0.0,68,0.00,CLR,,0.00,WeatherDisplay:10.37,2013-02-17 13:50:00,
2013-02-17 08:00:00,29.5,19.9,30.25,SSE,164,0.0,0.0,67,0.00,CLR,,0.00,WeatherDisplay:10.37,2013-02-17 14:00:00,
2013-02-17 08:20:00,30.6,20.5,30.26,South,187,0.0,0.0,66,0.00,CLR,,0.00,WeatherDisplay:10.37,2013-02-17 14:20:00,
2013-02-17 08:30:00,30.9,20.5,30.26,South,174,0.0,0.0,65,0.00,CLR,,0.00,WeatherDisplay:10.37,2013-02-17 14:30:00,
2013-02-17 08:40:00,31.8,21.0,30.26,South,183,0.0,0.0,64,0.00,CLR,,0.00,WeatherDisplay:10.37,2013-02-17 14:40:00,
2013-02-17 08:50:00,31.9,20.8,30.27,South,187,0.0,0.0,63,0.00,CLR,,0.00,WeatherDisplay:10.37,2013-02-17 14:50:00,
2013-02-17 09:00:00,32.2,20.6,30.27,South,171,0.0,0.0,62,0.00,CLR,,0.00,WeatherDisplay:10.37,2013-02-17 15:00:00,
2013-02-17 09:10:00,32.5,20.2,30.27,South,180,0.0,0.0,60,0.00,CLR,,0.00,WeatherDisplay:10.37,2013-02-17 15:10:00,
2013-02-17 09:20:00,33.1,20.7,30.27,South,183,0.0,0.0,60,0.00,CLR,,0.00,WeatherDisplay:10.37,2013-02-17 15:20:00,
2013-02-17 09:30:00,33.4,20.6,30.27,South,180,0.0,0.0,59,0.00,CLR,,0.00,WeatherDisplay:10.37,2013-02-17 15:30:00,
2013-02-17 09:40:00,34.2,20.9,30.27,SSW,202,0.0,0.0,58,0.00,CLR,,0.00,WeatherDisplay:10.37,2013-02-17 15:40:00,
2013-02-17 09:50:00,34.3,21.1,30.28,South,174,0.0,0.0,58,0.00,CLR,,0.00,WeatherDisplay:10.37,2013-02-17 15:50:00,
2013-02-17 10:00:00,35.4,22.1,30.28,South,186,0.0,0.0,58,0.00,CLR,,0.00,WeatherDisplay:10.37,2013-02-17 16:00:00,
2013-02-17 10:10:00,36.0,21.8,30.28,South,174,0.0,0.0,56,0.00,CLR,,0.00,WeatherDisplay:10.37,2013-02-17 16:10:00,
2013-02-17 10:20:00,37.2,22.1,30.28,SSW,194,0.0,0.0,54,0.00,CLR,,0.00,WeatherDisplay:10.37,2013-02-17 16:20:00,
2013-02-17 10:30:00,37.8,21.7,30.28,South,174,0.0,0.0,52,0.00,CLR,,0.00,WeatherDisplay:10.37,2013-02-17 16:30:00,
2013-02-17 10:40:00,37.8,21.7,30.28,SSW,202,0.0,0.0,52,0.00,CLR,,0.00,WeatherDisplay:10.37,2013-02-17 16:40:00,
2013-02-17 10:50:00,39.9,22.3,30.28,South,175,0.0,0.0,49,0.00,CLR,,0.00,WeatherDisplay:10.37,2013-02-17 16:50:00,
2013-02-17 11:00:00,40.8,22.6,30.28,SW,214,0.0,0.0,48,0.00,CLR,,0.00,WeatherDisplay:10.37,2013-02-17 17:00:00,
2013-02-17 11:10:00,41.4,22.6,30.28,SSW,195,0.0,0.0,47,0.00,CLR,,0.00,WeatherDisplay:10.37,2013-02-17 17:10:00,
2013-02-17 11:20:00,41.9,22.6,30.27,SSE,151,0.0,0.0,46,0.00,CLR,,0.00,WeatherDisplay:10.37,2013-02-17 17:20:00,
2013-02-17 11:30:00,42.6,22.7,30.27,SE,145,0.0,0.0,45,0.00,CLR,,0.00,WeatherDisplay:10.37,2013-02-17 17:30:00,
2013-02-17 11:40:00,44.4,23.8,30.27,South,189,0.0,0.0,44,0.00,CLR,,0.00,WeatherDisplay:10.37,2013-02-17 17:40:00,
2013-02-17 11:50:00,44.8,23.1,30.27,South,190,0.0,0.0,42,0.00,CLR,,0.00,WeatherDisplay:10.37,2013-02-17 17:50:00,
2013-02-17 12:00:00,45.0,22.6,30.26,SSE,158,0.0,0.0,41,0.00,CLR,,0.00,WeatherDisplay:10.37,2013-02-17 18:00:00,
2013-02-17 12:10:00,44.9,22.0,30.26,SSW,192,0.0,0.0,40,0.00,CLR,,0.00,WeatherDisplay:10.37,2013-02-17 18:10:00,
2013-02-17 12:20:00,46.0,22.4,30.26,SSW,192,0.0,0.0,39,0.00,CLR,,0.00,WeatherDisplay:10.37,2013-02-17 18:20:00,
2013-02-17 12:30:00,47.3,23.6,30.24,South,183,0.0,0.0,39,0.00,CLR,,0.00,WeatherDisplay:10.37,2013-02-17 18:30:00,
2013-02-17 12:40:00,46.8,23.1,30.23,SE,135,0.0,0.0,39,0.00,CLR,,0.00,WeatherDisplay:10.37,2013-02-17 18:40:00,
2013-02-17 12:50:00,47.8,24.0,30.23,SSE,152,0.0,0.0,39,0.00,CLR,,0.00,WeatherDisplay:10.37,2013-02-17 18:50:00,
2013-02-17 13:00:00,48.6,24.1,30.23,SW,225,0.0,0.0,38,0.00,CLR,,0.00,WeatherDisplay:10.37,2013-02-17 19:00:00,
2013-02-17 13:10:00,46.9,22.0,30.23,SSW,209,0.0,0.0,37,0.00,CLR,,0.00,WeatherDisplay:10.37,2013-02-17 19:10:00,
2013-02-17 13:20:00,46.9,22.0,30.22,SSW,197,0.0,0.0,37,0.00,CLR,,0.00,WeatherDisplay:10.37,2013-02-17 19:20:00,
2013-02-17 13:30:00,47.4,22.4,30.21,SW,215,0.0,0.0,37,0.00,CLR,,0.00,WeatherDisplay:10.37,2013-02-17 19:30:00,
2013-02-17 13:40:00,48.4,22.6,30.21,SSE,167,0.0,0.0,36,0.00,CLR,,0.00,WeatherDisplay:10.37,2013-02-17 19:40:00,
2013-02-17 13:50:00,48.9,22.4,30.21,South,182,0.0,0.0,35,0.00,CLR,,0.00,WeatherDisplay:10.37,2013-02-17 19:50:00,
2013-02-17 14:00:00,50.2,22.8,30.21,SSW,199,0.0,0.0,34,0.00,CLR,,0.00,WeatherDisplay:10.37,2013-02-17 20:00:00,
2013-02-17 14:10:00,48.3,21.2,30.21,ESE,119,0.0,0.0,34,0.00,CLR,,0.00,WeatherDisplay:10.37,2013-02-17 20:10:00,
2013-02-17 14:20:00,48.4,21.9,30.19,SE,140,0.0,0.0,35,0.00,CLR,,0.00,WeatherDisplay:10.37,2013-02-17 20:20:00,
2013-02-17 14:30:00,48.7,22.3,30.19,South,181,0.0,0.0,35,0.00,CLR,,0.00,WeatherDisplay:10.37,2013-02-17 20:30:00,
2013-02-17 14:40:00,49.5,23.6,30.18,South,183,0.0,0.0,36,0.00,CLR,,0.00,WeatherDisplay:10.37,2013-02-17 20:40:00,
2013-02-17 14:50:00,49.8,23.2,30.18,SSW,195,0.0,0.0,35,0.00,CLR,,0.00,WeatherDisplay:10.37,2013-02-17 20:50:00,
2013-02-17 15:00:00,50.5,23.9,30.18,South,190,0.0,0.0,35,0.00,CLR,,0.00,WeatherDisplay:10.37,2013-02-17 21:00:00,
2013-02-17 15:10:00,50.9,24.2,30.17,South,180,0.0,0.0,35,0.00,CLR,,0.00,WeatherDisplay:10.37,2013-02-17 21:10:00,
2013-02-17 15:20:00,50.5,23.9,30.17,South,179,0.0,0.0,35,0.00,CLR,,0.00,WeatherDisplay:10.37,2013-02-17 21:20:00,
2013-02-17 15:30:00,50.5,24.5,30.16,SSW,198,0.0,0.0,36,0.00,CLR,,0.00,WeatherDisplay:10.37,2013-02-17 21:30:00,
2013-02-17 15:40:00,50.4,24.4,30.17,South,185,0.0,0.0,36,0.00,CLR,,0.00,WeatherDisplay:10.37,2013-02-17 21:40:00,
2013-02-17 15:50:00,50.7,24.0,30.17,South,177,0.0,0.0,35,0.00,CLR,,0.00,WeatherDisplay:10.37,2013-02-17 21:50:00,
2013-02-17 16:00:00,51.4,24.7,30.17,South,186,0.0,0.0,35,0.00,CLR,,0.00,WeatherDisplay:10.37,2013-02-17 22:00:00,
2013-02-17 16:10:00,50.5,23.9,30.17,SSE,158,0.0,0.0,35,0.00,CLR,,0.00,WeatherDisplay:10.37,2013-02-17 22:10:00,
2013-02-17 16:20:00,50.4,24.4,30.17,SSE,153,0.0,0.0,36,0.00,CLR,,0.00,WeatherDisplay:10.37,2013-02-17 22:20:00,
2013-02-17 16:30:00,48.9,23.8,30.17,South,170,0.0,0.0,37,0.00,CLR,,0.00,WeatherDisplay:10.37,2013-02-17 22:30:00,
2013-02-17 16:40:00,48.7,24.2,30.17,SSE,166,0.0,0.0,38,0.00,CLR,,0.00,WeatherDisplay:10.37,2013-02-17 22:40:00,
2013-02-17 16:50:00,48.4,23.3,30.17,South,181,0.0,0.0,37,0.00,CLR,,0.00,WeatherDisplay:10.37,2013-02-17 22:50:00,
2013-02-17 17:00:00,48.4,23.9,30.17,SSE,162,0.0,0.0,38,0.00,CLR,,0.00,WeatherDisplay:10.37,2013-02-17 23:00:00,
2013-02-17 17:10:00,47.7,23.9,30.17,South,173,0.0,0.0,39,0.00,CLR,,0.00,WeatherDisplay:10.37,2013-02-17 23:10:00,
2013-02-17 17:20:00,47.1,24.0,30.16,SSE,161,0.0,0.0,40,0.00,CLR,,0.00,WeatherDisplay:10.37,2013-02-17 23:20:00,
2013-02-17 17:30:00,46.4,23.9,30.16,SSE,159,0.0,0.0,41,0.00,CLR,,0.00,WeatherDisplay:10.37,2013-02-17 23:30:00,
2013-02-17 17:40:00,45.9,23.5,30.16,SSE,162,0.0,0.0,41,0.00,CLR,,0.00,WeatherDisplay:10.37,2013-02-17 23:40:00,
2013-02-17 17:50:00,45.3,23.5,30.16,SSE,158,0.0,0.0,42,0.00,CLR,,0.00,WeatherDisplay:10.37,2013-02-17 23:50:00,
2013-02-17 18:00:00,44.8,23.1,30.16,SSE,158,0.0,0.0,42,0.00,CLR,,0.00,WeatherDisplay:10.37,2013-02-18 00:00:00,
2013-02-17 18:10:00,44.2,23.7,30.16,SSE,152,0.0,0.0,44,0.00,CLR,,0.00,WeatherDisplay:10.37,2013-02-18 00:10:00,
2013-02-17 18:20:00,43.9,23.4,30.16,SSE,158,0.0,0.0,44,0.00,CLR,,0.00,WeatherDisplay:10.37,2013-02-18 00:20:00,
2013-02-17 18:30:00,43.7,23.2,30.16,SSE,149,0.0,0.0,44,0.00,CLR,,0.00,WeatherDisplay:10.37,2013-02-18 00:30:00,
2013-02-17 18:40:00,43.3,23.4,30.16,SSE,151,0.0,0.0,45,0.00,CLR,,0.00,WeatherDisplay:10.37,2013-02-18 00:40:00,
2013-02-17 18:50:00,42.8,23.5,30.16,SSE,154,0.0,0.0,46,0.00,CLR,,0.00,WeatherDisplay:10.37,2013-02-18 00:50:00,
2013-02-17 19:00:00,42.6,23.3,30.16,SSE,158,0.0,0.0,46,0.00,CLR,,0.00,WeatherDisplay:10.37,2013-02-18 01:00:00,
2013-02-17 19:10:00,42.4,23.6,30.15,SSE,158,0.0,0.0,47,0.00,CLR,,0.00,WeatherDisplay:10.37,2013-02-18 01:10:00,
2013-02-17 19:20:00,42.4,23.6,30.15,SSE,148,0.0,0.0,47,0.00,CLR,,0.00,WeatherDisplay:10.37,2013-02-18 01:20:00,
2013-02-17 19:30:00,42.6,23.8,30.15,SSE,158,0.0,0.0,47,0.00,CLR,,0.00,WeatherDisplay:10.37,2013-02-18 01:30:00,
2013-02-17 19:40:00,41.9,23.1,30.15,SE,142,0.0,0.0,47,0.00,CLR,,0.00,WeatherDisplay:10.37,2013-02-18 01:40:00,
2013-02-17 19:50:00,41.9,23.6,30.15,SSE,161,0.0,0.0,48,0.00,CLR,,0.00,WeatherDisplay:10.37,2013-02-18 01:50:00,
2013-02-17 20:00:00,41.4,23.1,30.15,SSE,163,0.0,0.0,48,0.00,CLR,,0.00,WeatherDisplay:10.37,2013-02-18 02:00:00,
2013-02-17 20:10:00,41.2,23.4,30.16,SSE,148,0.0,0.0,49,0.00,CLR,,0.00,WeatherDisplay:10.37,2013-02-18 02:10:00,
2013-02-17 20:20:00,40.8,23.1,30.16,SSE,163,0.0,0.0,49,0.00,CLR,,0.00,WeatherDisplay:10.37,2013-02-18 02:20:00,
2013-02-17 20:30:00,40.8,23.6,30.16,SSE,158,0.0,0.0,50,0.00,CLR,,0.00,WeatherDisplay:10.37,2013-02-18 02:30:00,
2013-02-17 20:40:00,40.6,23.4,30.16,SSE,158,0.0,0.0,50,0.00,CLR,,0.00,WeatherDisplay:10.37,2013-02-18 02:40:00,
2013-02-17 20:50:00,40.8,23.6,30.16,SSE,157,0.0,0.0,50,0.00,CLR,,0.00,WeatherDisplay:10.37,2013-02-18 02:50:00,
2013-02-17 21:00:00,40.8,23.6,30.16,SSE,168,0.0,0.0,50,0.00,CLR,,0.00,WeatherDisplay:10.37,2013-02-18 03:00:00,
2013-02-17 21:10:00,40.8,23.6,30.16,SSE,158,0.0,0.0,50,0.00,CLR,,0.00,WeatherDisplay:10.37,2013-02-18 03:10:00,
2013-02-17 21:20:00,40.8,23.6,30.16,SSE,154,0.0,0.0,50,0.00,CLR,,0.00,WeatherDisplay:10.37,2013-02-18 03:20:00,
2013-02-17 21:30:00,41.2,23.9,30.16,South,175,0.0,0.0,50,0.00,CLR,,0.00,WeatherDisplay:10.37,2013-02-18 03:30:00,
2013-02-17 21:40:00,41.2,23.9,30.16,South,174,0.0,0.0,50,0.00,CLR,,0.00,WeatherDisplay:10.37,2013-02-18 03:40:00,
2013-02-17 21:50:00,41.5,23.8,30.17,SSE,168,0.0,0.0,49,0.00,CLR,,0.00,WeatherDisplay:10.37,2013-02-18 03:50:00,
2013-02-17 22:00:00,41.3,23.5,30.17,South,175,0.0,0.0,49,0.00,CLR,,0.00,WeatherDisplay:10.37,2013-02-18 04:00:00,
2013-02-17 22:10:00,41.2,23.4,30.16,South,174,0.0,0.0,49,0.00,CLR,,0.00,WeatherDisplay:10.37,2013-02-18 04:10:00,
2013-02-17 22:20:00,40.8,23.6,30.16,SSE,167,0.0,0.0,50,0.00,CLR,,0.00,WeatherDisplay:10.37,2013-02-18 04:20:00,
2013-02-17 22:30:00,40.6,23.4,30.16,SSE,167,0.0,0.0,50,0.00,CLR,,0.00,WeatherDisplay:10.37,2013-02-18 04:30:00,
2013-02-17 22:40:00,40.6,23.4,30.16,SSE,168,0.0,0.0,50,0.00,CLR,,0.00,WeatherDisplay:10.37,2013-02-18 04:40:00,
2013-02-17 22:50:00,40.3,23.1,30.15,SSW,194,0.0,0.0,50,0.00,CLR,,0.00,WeatherDisplay:10.37,2013-02-18 04:50:00,
2013-02-17 23:00:00,40.1,22.9,30.15,SSE,164,0.0,0.0,50,0.00,CLR,,0.00,WeatherDisplay:10.37,2013-02-18 05:00:00,
2013-02-17 23:10:00,40.1,22.9,30.15,SE,146,0.0,5.0,50,0.00,CLR,,0.00,WeatherDisplay:10.37,2013-02-18 05:10:00,
2013-02-17 23:20:00,39.9,23.2,30.15,South,176,0.0,0.0,51,0.00,CLR,,0.00,WeatherDisplay:10.37,2013-02-18 05:20:00,
2013-02-17 23:30:00,39.7,23.1,30.15,South,180,0.0,0.0,51,0.00,CLR,,0.00,WeatherDisplay:10.37,2013-02-18 05:30:00,
2013-02-17 23:40:00,39.7,23.1,30.14,South,171,0.0,0.0,51,0.00,CLR,,0.00,WeatherDisplay:10.37,2013-02-18 05:40:00,
2013-02-17 23:50:00,40.1,23.4,30.14,SSE,155,0.0,0.0,51,0.00,CLR,,0.00,WeatherDisplay:10.37,2013-02-18 05:50:00,